This is the latest recevied weather packets stored in our database for station/object JA1CAY-13. If no packets are shown the sender has not sent any weather packets the latest 10 day(s).
| Time | Temp. | Humidity | Pressure | Rain* | Wind** | Luminosity | Snow |
|---|---|---|---|---|---|---|---|
| 1777845444 | 16.67° C | 92% | 997.1 hPa | 0.51 mm | - | 76 W/m² | - |
| 1777842745 | 16.67° C | 92% | 996.6 hPa | 0.25 mm | - | 77 W/m² | - |
| 1777834645 | 16.11° C | 92% | 998 hPa | 4.57 mm | - | 0 W/m² | - |
| 1777829785 | 16.11° C | 92% | 999.9 hPa | 2.79 mm | - | 0 W/m² | - |
| 1777829245 | 16.11° C | 92% | 999.7 hPa | 2.54 mm | - | 0 W/m² | - |
| 1777823305 | 16.11° C | 91% | 1002 hPa | 0.51 mm | - | 0 W/m² | - |
| 1777822225 | 16.11° C | 91% | 1002.1 hPa | 0.51 mm | - | 0 W/m² | - |
| 1777815746 | 16.11° C | 90% | 1003.4 hPa | 0.25 mm | - | 0 W/m² | - |
| 1777809804 | 16.67° C | 86% | 1005.7 hPa | 0 mm | - | 0 W/m² | - |
| 1777807645 | 17.22° C | 84% | 1005.7 hPa | 0.25 mm | - | 0 W/m² | - |
| 1777804945 | 17.78° C | 78% | 1005.9 hPa | 0 mm | - | 0 W/m² | - |
| 1777803865 | 18.33° C | 74% | 1006 hPa | 0 mm | - | 0 W/m² | - |
| 1777800624 | 20° C | 58% | 1005.6 hPa | 0 mm | - | 0 W/m² | - |
| 1777800085 | 20.56° C | 55% | 1005.4 hPa | 0 mm | - | 0 W/m² | - |
| 1777796305 | 22.22° C | 44% | 1005.3 hPa | 0 mm | - | 26 W/m² | - |
| 1777793605 | 22.78° C | 38% | 1005.1 hPa | 0 mm | - | 42 W/m² | - |
| 1777792525 | 23.33° C | 37% | 1005.3 hPa | 0 mm | - | 84 W/m² | - |
| 1777783344 | 25.56° C | 35% | 1006.4 hPa | 0 mm | - | 369 W/m² | - |
| 1777779564 | 25° C | 37% | 1007.9 hPa | 0 mm | - | 299 W/m² | - |
| 1777774705 | 23.33° C | 45% | 1009.5 hPa | 0 mm | - | 1002 W/m² | - |
| 1777771464 | 20° C | 54% | 1010.8 hPa | 0 mm | - | 381 W/m² | - |
| 1777768225 | 18.33° C | 62% | 1011.8 hPa | 0 mm | - | 185 W/m² | - |
| 1777764984 | 16.67° C | 69% | 1012.2 hPa | 0 mm | - | 176 W/m² | - |
| 1777762285 | 15.56° C | 72% | 1012.6 hPa | 0 mm | - | 151 W/m² | - |
| 1777759045 | 14.44° C | 80% | 1013.1 hPa | 0 mm | - | 63 W/m² | - |
* Rain latest hour (hover to see other rain measurements)
** Current wind speed in m/s (hover to see current wind gust speed)